Time;durP1;ratioP1;P1;durP2;ratioP2;P2;SDS_P1;SDS_P2;PMS_P1;PMS_P2;Temp;Humidity;BMP_temperature;BMP_pressure;BME280_temperature;BME280_humidity;BME280_pressure;Samples;Min_cycle;Max_cycle;Signal;HPM_P1;HPM_P2
2023/09/26 00:00:58;;;;;;;12.03;1.83;;;;;;;;;;5014246;28;20414;-71
2023/09/26 00:03:25;;;;;;;1.90;1.80;;;;;;;;;;5013921;28;20550;-70
2023/09/26 00:05:52;;;;;;;2.70;1.27;;;;;;;;;;5013492;28;20873;-68
2023/09/26 00:08:18;;;;;;;1.70;1.70;;;;;;;;;;5013473;28;20785;-68
2023/09/26 00:10:46;;;;;;;2.83;2.70;;;;;;;;;;5013659;28;20506;-68
2023/09/26 00:13:12;;;;;;;6.37;1.53;;;;;;;;;;5013881;28;20425;-68
2023/09/26 00:15:39;;;;;;;1.80;1.70;;;;;;;;;;5013495;28;20416;-70
2023/09/26 00:18:08;;;;;;;2.00;1.90;;;;;;;;;;5013510;28;20420;-72
2023/09/26 00:20:39;;;;;;;2.83;1.30;;;;;;;;;;5013398;28;20501;-68
2023/09/26 00:26:08;;;;;;;3.17;1.60;;;;;;;;;;5013452;28;20443;-68
2023/09/26 00:28:35;;;;;;;2.80;1.70;;;;;;;;;;5013636;28;20408;-68
2023/09/26 00:31:04;;;;;;;2.03;1.90;;;;;;;;;;5013646;28;20772;-67
2023/09/26 00:33:31;;;;;;;1.70;1.70;;;;;;;;;;5013421;28;20444;-71
2023/09/26 00:35:58;;;;;;;2.10;2.00;;;;;;;;;;5013255;28;20412;-70
2023/09/26 00:38:24;;;;;;;2.20;1.53;;;;;;;;;;5013276;28;20942;-70
2023/09/26 00:40:50;;;;;;;1.80;1.50;;;;;;;;;;5013543;28;20416;-71
2023/09/26 00:43:22;;;;;;;3.33;1.53;;;;;;;;;;5013239;28;20614;-71
2023/09/26 00:45:51;;;;;;;1.30;1.17;;;;;;;;;;5013079;28;20904;-71
2023/09/26 00:48:17;;;;;;;1.90;1.77;;;;;;;;;;5013319;28;20766;-70
2023/09/26 00:50:45;;;;;;;1.27;1.27;;;;;;;;;;5017205;28;20419;-67
2023/09/26 00:53:11;;;;;;;1.70;1.60;;;;;;;;;;5016996;28;20551;-68
2023/09/26 00:55:38;;;;;;;2.63;1.20;;;;;;;;;;5017773;28;20907;-67
2023/09/26 00:58:04;;;;;;;1.90;1.80;;;;;;;;;;5017039;28;20420;-68
2023/09/26 01:00:31;;;;;;;8.03;2.37;;;;;;;;;;5017074;28;20467;-69
2023/09/26 01:02:57;;;;;;;2.47;2.47;;;;;;;;;;5016920;28;20467;-67
2023/09/26 01:05:24;;;;;;;4.73;2.60;;;;;;;;;;5017105;28;20413;-70
2023/09/26 01:07:50;;;;;;;1.70;1.70;;;;;;;;;;5017003;28;20815;-70
2023/09/26 01:10:16;;;;;;;2.73;2.53;;;;;;;;;;5017353;28;20749;-71
2023/09/26 01:12:42;;;;;;;1.43;1.33;;;;;;;;;;5017303;28;20892;-71
2023/09/26 01:15:08;;;;;;;2.93;1.73;;;;;;;;;;5016999;28;20466;-70
2023/09/26 01:17:34;;;;;;;4.00;1.43;;;;;;;;;;5016912;28;20456;-69
2023/09/26 01:20:01;;;;;;;5.07;1.43;;;;;;;;;;5016832;28;20419;-70
2023/09/26 01:22:27;;;;;;;1.20;1.20;;;;;;;;;;5016581;28;20463;-68
2023/09/26 01:24:53;;;;;;;2.10;1.57;;;;;;;;;;4998956;28;20439;-70
2023/09/26 01:27:19;;;;;;;2.67;1.90;;;;;;;;;;5016493;28;20412;-70
2023/09/26 01:29:48;;;;;;;1.73;1.63;;;;;;;;;;5016798;28;20823;-71
2023/09/26 01:32:14;;;;;;;1.57;1.40;;;;;;;;;;5017164;28;20428;-70
2023/09/26 01:34:40;;;;;;;7.83;1.50;;;;;;;;;;5016294;28;20434;-71
2023/09/26 01:37:07;;;;;;;1.60;1.60;;;;;;;;;;5016629;28;20475;-69
2023/09/26 01:39:33;;;;;;;1.57;1.40;;;;;;;;;;5016518;28;20503;-69
2023/09/26 01:41:59;;;;;;;1.43;1.40;;;;;;;;;;5016256;28;20463;-67
2023/09/26 01:44:25;;;;;;;1.30;1.30;;;;;;;;;;5016451;28;20479;-68
2023/09/26 01:46:51;;;;;;;1.60;1.50;;;;;;;;;;5016404;28;20448;-68
2023/09/26 01:49:17;;;;;;;1.73;1.73;;;;;;;;;;5016358;28;20503;-67
2023/09/26 01:51:43;;;;;;;2.40;1.80;;;;;;;;;;5016123;28;20904;-67
2023/09/26 01:54:09;;;;;;;2.73;1.27;;;;;;;;;;5015805;28;20468;-68
2023/09/26 01:56:35;;;;;;;1.50;1.40;;;;;;;;;;5016012;28;20417;-69
2023/09/26 01:59:01;;;;;;;1.20;1.20;;;;;;;;;;5015836;28;20418;-67
2023/09/26 02:01:27;;;;;;;1.53;1.43;;;;;;;;;;5016143;28;20499;-69
2023/09/26 02:03:53;;;;;;;0.80;0.80;;;;;;;;;;5016282;28;20998;-67
2023/09/26 02:06:19;;;;;;;3.90;1.10;;;;;;;;;;5015655;28;20748;-68
2023/09/26 02:08:45;;;;;;;1.23;1.23;;;;;;;;;;5016055;28;20458;-67
2023/09/26 02:11:11;;;;;;;2.00;1.47;;;;;;;;;;5016440;28;20510;-68
2023/09/26 02:13:36;;;;;;;1.23;1.23;;;;;;;;;;5015963;28;20412;-68
2023/09/26 02:16:03;;;;;;;3.07;1.20;;;;;;;;;;5015788;28;20419;-68
2023/09/26 02:18:29;;;;;;;1.60;1.50;;;;;;;;;;5015828;28;20779;-71
2023/09/26 02:20:55;;;;;;;1.30;1.30;;;;;;;;;;5015796;28;20914;-70
2023/09/26 02:23:21;;;;;;;4.63;1.40;;;;;;;;;;5015428;28;20482;-71
2023/09/26 02:25:49;;;;;;;1.67;1.57;;;;;;;;;;5015588;28;20413;-68
2023/09/26 02:28:15;;;;;;;1.83;1.67;;;;;;;;;;5015463;28;20435;-68
2023/09/26 02:30:42;;;;;;;1.00;1.00;;;;;;;;;;5015344;28;20416;-68
2023/09/26 02:36:11;;;;;;;2.60;1.50;;;;;;;;;;5015360;28;20395;-68
2023/09/26 02:38:37;;;;;;;1.50;1.50;;;;;;;;;;5015213;28;20800;-68
2023/09/26 02:41:02;;;;;;;1.30;1.30;;;;;;;;;;5015167;28;20420;-70
2023/09/26 02:43:28;;;;;;;5.50;2.67;;;;;;;;;;5015056;28;20463;-70
2023/09/26 02:45:54;;;;;;;1.60;1.20;;;;;;;;;;5015001;28;20405;-68
2023/09/26 02:48:20;;;;;;;1.77;1.43;;;;;;;;;;5015312;28;20430;-72
2023/09/26 02:50:46;;;;;;;1.30;1.30;;;;;;;;;;5015219;28;20452;-70
2023/09/26 02:53:12;;;;;;;1.10;1.10;;;;;;;;;;5015132;28;20468;-71
2023/09/26 02:55:41;;;;;;;2.10;2.10;;;;;;;;;;4997344;28;20516;-69
2023/09/26 02:58:07;;;;;;;1.53;1.53;;;;;;;;;;5014819;28;20424;-68
2023/09/26 03:00:33;;;;;;;2.17;2.07;;;;;;;;;;5015019;28;20515;-68
2023/09/26 03:03:00;;;;;;;1.33;1.33;;;;;;;;;;5014956;28;20460;-70
2023/09/26 03:05:26;;;;;;;2.87;1.37;;;;;;;;;;5014632;28;20862;-71
2023/09/26 03:07:52;;;;;;;1.60;1.50;;;;;;;;;;5014715;28;20448;-69
2023/09/26 03:10:18;;;;;;;2.40;1.23;;;;;;;;;;5014930;28;20507;-69
2023/09/26 03:12:44;;;;;;;3.37;1.50;;;;;;;;;;5014108;28;20423;-70
2023/09/26 03:15:11;;;;;;;3.67;1.53;;;;;;;;;;5014388;28;20432;-70
2023/09/26 03:17:37;;;;;;;1.63;1.63;;;;;;;;;;5014729;28;20412;-71
2023/09/26 03:20:04;;;;;;;10.10;1.60;;;;;;;;;;5014714;28;20518;-71
2023/09/26 03:22:30;;;;;;;2.73;1.20;;;;;;;;;;5014602;28;20514;-68
2023/09/26 03:24:56;;;;;;;2.20;1.40;;;;;;;;;;5014647;28;20421;-68
2023/09/26 03:27:22;;;;;;;1.17;1.17;;;;;;;;;;5014278;28;20419;-68
2023/09/26 03:29:50;;;;;;;1.30;1.30;;;;;;;;;;5014508;28;20830;-69
2023/09/26 03:32:16;;;;;;;5.03;1.60;;;;;;;;;;5015322;28;20507;-70
2023/09/26 03:34:42;;;;;;;1.43;1.43;;;;;;;;;;5014327;28;20921;-67
2023/09/26 03:37:08;;;;;;;4.93;1.27;;;;;;;;;;4996566;28;20420;-70
2023/09/26 03:39:34;;;;;;;6.47;1.20;;;;;;;;;;5014099;28;20443;-70
2023/09/26 03:42:00;;;;;;;1.53;1.30;;;;;;;;;;5014289;28;20416;-69
2023/09/26 03:44:26;;;;;;;1.67;1.67;;;;;;;;;;5014214;28;20495;-67
2023/09/26 03:46:52;;;;;;;1.60;1.50;;;;;;;;;;5014011;28;20412;-70
2023/09/26 03:49:18;;;;;;;1.33;1.30;;;;;;;;;;5013881;28;20429;-71
2023/09/26 03:51:44;;;;;;;1.80;1.70;;;;;;;;;;5013943;28;20462;-71
2023/09/26 03:54:10;;;;;;;1.40;1.30;;;;;;;;;;5013641;28;20490;-69
2023/09/26 03:56:36;;;;;;;4.37;1.47;;;;;;;;;;4996164;28;20416;-71
2023/09/26 03:59:02;;;;;;;7.00;1.53;;;;;;;;;;5014014;28;20427;-72
2023/09/26 04:01:28;;;;;;;1.50;1.50;;;;;;;;;;5013829;28;20417;-70
2023/09/26 04:03:54;;;;;;;1.20;1.20;;;;;;;;;;5014103;28;20562;-69
2023/09/26 04:06:20;;;;;;;3.17;2.97;;;;;;;;;;5013931;28;20409;-70
2023/09/26 04:08:46;;;;;;;7.20;6.60;;;;;;;;;;5013805;28;20503;-70
2023/09/26 04:11:13;;;;;;;4.83;3.50;;;;;;;;;;5013744;28;20424;-70
2023/09/26 04:13:39;;;;;;;2.30;2.30;;;;;;;;;;5013914;28;20780;-70
2023/09/26 04:16:05;;;;;;;1.63;1.63;;;;;;;;;;5013703;28;20912;-67
2023/09/26 04:18:31;;;;;;;1.40;0.90;;;;;;;;;;5013821;28;20471;-68
2023/09/26 04:21:01;;;;;;;3.17;1.43;;;;;;;;;;5013736;28;20420;-68
2023/09/26 04:26:30;;;;;;;5.17;1.50;;;;;;;;;;5013465;28;20407;-67
2023/09/26 04:28:56;;;;;;;1.73;1.73;;;;;;;;;;5013639;28;20413;-67
2023/09/26 04:31:22;;;;;;;2.23;1.70;;;;;;;;;;5013682;28;20420;-69
2023/09/26 04:33:49;;;;;;;1.30;1.30;;;;;;;;;;5013536;28;20408;-68
2023/09/26 04:36:15;;;;;;;1.87;1.77;;;;;;;;;;5013284;28;20424;-70
2023/09/26 04:38:41;;;;;;;3.27;1.60;;;;;;;;;;5013565;28;20499;-68
2023/09/26 04:41:07;;;;;;;1.53;1.53;;;;;;;;;;5013605;28;20871;-71
2023/09/26 04:43:34;;;;;;;3.67;1.47;;;;;;;;;;5013452;28;20987;-71
2023/09/26 04:46:00;;;;;;;5.63;2.53;;;;;;;;;;5013447;28;20427;-68
2023/09/26 04:48:26;;;;;;;2.50;1.57;;;;;;;;;;5013494;28;20420;-68
2023/09/26 04:50:52;;;;;;;1.67;1.67;;;;;;;;;;5013465;28;20416;-69
2023/09/26 04:53:18;;;;;;;2.50;2.40;;;;;;;;;;5012937;28;20472;-69
2023/09/26 04:55:44;;;;;;;2.30;2.20;;;;;;;;;;5013151;28;20419;-67
2023/09/26 04:58:10;;;;;;;3.57;2.47;;;;;;;;;;5013293;28;20903;-68
2023/09/26 05:00:36;;;;;;;3.50;2.70;;;;;;;;;;5012987;28;20419;-69
2023/09/26 05:03:03;;;;;;;2.30;2.20;;;;;;;;;;5013076;28;20835;-67
2023/09/26 05:05:28;;;;;;;4.43;2.87;;;;;;;;;;5013433;28;20428;-68
2023/09/26 05:07:55;;;;;;;2.60;2.50;;;;;;;;;;5013218;28;20419;-68
2023/09/26 05:10:21;;;;;;;4.67;2.63;;;;;;;;;;5012898;28;20424;-70
2023/09/26 05:12:47;;;;;;;3.30;3.00;;;;;;;;;;5012782;28;20871;-70
2023/09/26 05:15:14;;;;;;;3.40;3.20;;;;;;;;;;5013258;28;20427;-70
2023/09/26 05:17:46;;;;;;;6.40;3.50;;;;;;;;;;5012792;28;20935;-68
2023/09/26 05:20:12;;;;;;;9.87;3.30;;;;;;;;;;5012950;28;20474;-69
2023/09/26 05:22:42;;;;;;;6.43;2.97;;;;;;;;;;5012967;28;20486;-68
2023/09/26 05:25:08;;;;;;;2.10;2.00;;;;;;;;;;5013081;28;20435;-68
2023/09/26 05:27:34;;;;;;;6.73;3.73;;;;;;;;;;5012247;28;20421;-68
2023/09/26 05:30:00;;;;;;;2.93;2.73;;;;;;;;;;5012991;28;20503;-68
2023/09/26 05:32:26;;;;;;;3.53;3.13;;;;;;;;;;5012974;28;20404;-68
2023/09/26 05:34:52;;;;;;;19.67;6.00;;;;;;;;;;5013727;28;20424;-70
2023/09/26 05:37:18;;;;;;;8.40;2.93;;;;;;;;;;5016517;28;20408;-68
2023/09/26 05:39:44;;;;;;;3.80;2.80;;;;;;;;;;5016463;28;20932;-68
2023/09/26 05:42:10;;;;;;;3.17;2.93;;;;;;;;;;5016433;28;20439;-68
2023/09/26 05:44:36;;;;;;;7.27;3.27;;;;;;;;;;5016539;28;20967;-67
2023/09/26 05:47:03;;;;;;;8.00;3.00;;;;;;;;;;5016135;28;20511;-68
2023/09/26 05:49:29;;;;;;;3.10;2.90;;;;;;;;;;5016002;28;20783;-67
2023/09/26 05:51:55;;;;;;;4.50;2.53;;;;;;;;;;5015994;28;20483;-67
2023/09/26 05:54:21;;;;;;;4.67;2.50;;;;;;;;;;5015822;28;20546;-68
2023/09/26 05:56:47;;;;;;;4.10;2.67;;;;;;;;;;5015874;28;20428;-68
2023/09/26 05:59:13;;;;;;;5.13;2.77;;;;;;;;;;5015849;28;20515;-66
2023/09/26 06:01:39;;;;;;;4.80;3.20;;;;;;;;;;5015764;28;20425;-68
2023/09/26 06:04:05;;;;;;;4.23;2.97;;;;;;;;;;5015582;28;20498;-67
2023/09/26 06:06:33;;;;;;;4.83;2.67;;;;;;;;;;5015725;28;20773;-69
2023/09/26 06:08:59;;;;;;;3.47;3.23;;;;;;;;;;5015971;28;20424;-72
2023/09/26 06:11:25;;;;;;;3.13;2.80;;;;;;;;;;5015574;28;20821;-70
2023/09/26 06:13:54;;;;;;;3.30;3.10;;;;;;;;;;5075254;22;20507;-71
2023/09/26 06:16:20;;;;;;;5.93;3.17;;;;;;;;;;5009944;28;20908;-68
2023/09/26 06:18:50;;;;;;;3.40;3.30;;;;;;;;;;4992610;28;20436;-68
2023/09/26 06:21:18;;;;;;;3.87;3.67;;;;;;;;;;5011313;28;20432;-67
2023/09/26 06:23:44;;;;;;;3.67;2.40;;;;;;;;;;4994106;28;20483;-71
2023/09/26 06:26:10;;;;;;;3.20;3.00;;;;;;;;;;5009578;28;20431;-71
2023/09/26 06:28:36;;;;;;;3.27;3.07;;;;;;;;;;5007780;28;20447;-72
2023/09/26 06:31:05;;;;;;;4.20;2.57;;;;;;;;;;5007909;28;20446;-69
2023/09/26 06:33:31;;;;;;;9.93;3.03;;;;;;;;;;5010917;28;20451;-68
2023/09/26 06:35:57;;;;;;;6.40;2.60;;;;;;;;;;5008312;28;20467;-67
2023/09/26 06:38:23;;;;;;;2.83;2.73;;;;;;;;;;5010187;28;20515;-70
2023/09/26 06:40:59;;;;;;;6.43;2.97;;;;;;;;;;5010549;28;20440;-69
2023/09/26 06:43:25;;;;;;;3.90;2.50;;;;;;;;;;5009686;28;20994;-69
2023/09/26 06:45:51;;;;;;;3.33;2.80;;;;;;;;;;4991827;28;20495;-69
2023/09/26 06:48:17;;;;;;;8.33;3.20;;;;;;;;;;5009831;28;21152;-68
2023/09/26 06:50:43;;;;;;;4.10;2.90;;;;;;;;;;5008548;28;20440;-68
2023/09/26 06:53:09;;;;;;;3.60;3.00;;;;;;;;;;4992023;28;20451;-68
2023/09/26 06:55:39;;;;;;;9.53;3.10;;;;;;;;;;5006997;28;20448;-68
2023/09/26 06:58:05;;;;;;;2.80;2.70;;;;;;;;;;4992220;28;21021;-72
2023/09/26 07:00:31;;;;;;;3.40;3.30;;;;;;;;;;4993057;28;20428;-70
2023/09/26 07:02:58;;;;;;;3.33;3.03;;;;;;;;;;5009643;28;20495;-69
2023/09/26 07:05:28;;;;;;;3.00;2.90;;;;;;;;;;5006256;28;20440;-70
2023/09/26 07:07:54;;;;;;;4.00;2.80;;;;;;;;;;5008855;28;20447;-68
2023/09/26 07:10:23;;;;;;;3.87;3.67;;;;;;;;;;4987390;28;20447;-68
2023/09/26 07:12:51;;;;;;;3.47;3.30;;;;;;;;;;5006550;28;20452;-70
2023/09/26 07:15:18;;;;;;;3.20;2.90;;;;;;;;;;5009594;28;20503;-70
2023/09/26 07:17:44;;;;;;;4.67;4.47;;;;;;;;;;5009485;28;20431;-70
2023/09/26 07:20:13;;;;;;;3.80;2.97;;;;;;;;;;5010346;28;20935;-69
2023/09/26 07:22:40;;;;;;;2.80;2.60;;;;;;;;;;5008501;28;20975;-70
2023/09/26 07:25:06;;;;;;;14.10;8.10;;;;;;;;;;4990512;28;20444;-71
2023/09/26 07:27:32;;;;;;;3.40;3.17;;;;;;;;;;4988029;28;20440;-69
2023/09/26 07:29:58;;;;;;;2.90;2.70;;;;;;;;;;5009979;28;20501;-67
2023/09/26 07:32:24;;;;;;;4.67;2.93;;;;;;;;;;5010225;28;20868;-69
2023/09/26 07:34:50;;;;;;;3.10;2.90;;;;;;;;;;5009476;28;20948;-68
2023/09/26 07:37:16;;;;;;;2.30;2.20;;;;;;;;;;4992434;28;20424;-70
2023/09/26 07:39:44;;;;;;;2.53;2.53;;;;;;;;;;5009863;28;20798;-69
2023/09/26 07:42:10;;;;;;;5.33;3.37;;;;;;;;;;5008917;28;20468;-70
2023/09/26 07:44:36;;;;;;;10.30;2.90;;;;;;;;;;5009073;28;20526;-73
2023/09/26 07:47:02;;;;;;;3.13;2.90;;;;;;;;;;5008748;28;20823;-72
2023/09/26 07:49:28;;;;;;;6.90;2.90;;;;;;;;;;5008659;28;20534;-68
2023/09/26 07:51:54;;;;;;;3.33;2.73;;;;;;;;;;5007833;28;20563;-70
2023/09/26 07:54:20;;;;;;;3.10;3.00;;;;;;;;;;5009970;28;20959;-69
2023/09/26 07:56:46;;;;;;;3.53;3.17;;;;;;;;;;5009911;28;20927;-70
2023/09/26 07:59:12;;;;;;;3.13;2.70;;;;;;;;;;4992136;28;20482;-66
2023/09/26 08:01:38;;;;;;;5.68;3.83;;;;;;;;;;5008364;28;20423;-70
2023/09/26 08:04:04;;;;;;;5.80;3.70;;;;;;;;;;5009348;28;20228;-71
2023/09/26 08:06:31;;;;;;;2.80;2.70;;;;;;;;;;5008684;28;20439;-72
2023/09/26 08:08:57;;;;;;;1.77;1.77;;;;;;;;;;5009045;28;20920;-71
2023/09/26 08:11:27;;;;;;;14.80;2.90;;;;;;;;;;5010273;28;20428;-68
2023/09/26 08:13:54;;;;;;;2.10;2.10;;;;;;;;;;5010138;28;20503;-68
2023/09/26 08:16:21;;;;;;;2.80;2.60;;;;;;;;;;5009097;28;20514;-69
2023/09/26 08:18:49;;;;;;;2.63;2.57;;;;;;;;;;5009293;28;20478;-69
2023/09/26 08:21:15;;;;;;;5.60;2.77;;;;;;;;;;5005576;28;20494;-69
2023/09/26 08:23:41;;;;;;;4.50;3.00;;;;;;;;;;5008725;28;20582;-70
2023/09/26 08:26:11;;;;;;;9.97;2.00;;;;;;;;;;4991628;28;20519;-68
2023/09/26 08:28:37;;;;;;;2.80;2.70;;;;;;;;;;5008452;28;20459;-68
2023/09/26 08:31:05;;;;;;;1.50;1.50;;;;;;;;;;5008090;28;20436;-68
2023/09/26 08:33:31;;;;;;;2.10;2.00;;;;;;;;;;5008132;28;20486;-71
2023/09/26 08:35:57;;;;;;;2.00;1.90;;;;;;;;;;5008410;28;20416;-69
2023/09/26 08:38:23;;;;;;;3.13;2.67;;;;;;;;;;4991074;28;20440;-70
2023/09/26 08:40:52;;;;;;;2.13;2.03;;;;;;;;;;5003496;28;20441;-69
2023/09/26 08:43:24;;;;;;;3.33;3.03;;;;;;;;;;5008708;28;20863;-68
2023/09/26 08:45:50;;;;;;;5.20;2.80;;;;;;;;;;5006582;28;20428;-69
2023/09/26 08:48:16;;;;;;;4.67;2.30;;;;;;;;;;5008472;28;20455;-69
2023/09/26 08:50:44;;;;;;;2.50;2.30;;;;;;;;;;5007787;28;20435;-68
2023/09/26 08:53:10;;;;;;;1.93;1.83;;;;;;;;;;5008268;28;20479;-68
2023/09/26 08:55:38;;;;;;;1.30;1.20;;;;;;;;;;5007217;28;20872;-68
2023/09/26 08:58:04;;;;;;;2.07;1.97;;;;;;;;;;5008520;28;20436;-68
2023/09/26 09:00:30;;;;;;;3.10;2.00;;;;;;;;;;5007558;28;21200;-69
2023/09/26 09:02:56;;;;;;;5.37;1.80;;;;;;;;;;5006426;28;20556;-68
2023/09/26 09:05:23;;;;;;;4.10;2.20;;;;;;;;;;5007923;28;21366;-69
2023/09/26 09:07:49;;;;;;;1.93;1.83;;;;;;;;;;4990537;28;20804;-68
2023/09/26 09:10:18;;;;;;;1.80;1.70;;;;;;;;;;4993271;28;20439;-69
2023/09/26 09:12:47;;;;;;;5.87;2.13;;;;;;;;;;5013351;28;21019;-68
2023/09/26 09:15:17;;;;;;;2.03;1.93;;;;;;;;;;5011374;28;20475;-69
2023/09/26 09:17:43;;;;;;;2.50;1.83;;;;;;;;;;5013141;28;20416;-68
2023/09/26 09:20:10;;;;;;;2.00;2.00;;;;;;;;;;5012917;28;20427;-68
2023/09/26 09:22:36;;;;;;;3.13;2.93;;;;;;;;;;4994204;28;20836;-69
2023/09/26 09:25:03;;;;;;;2.10;2.00;;;;;;;;;;5011837;28;20554;-69
2023/09/26 09:27:38;;;;;;;6.73;2.53;;;;;;;;;;5012876;28;20435;-68
2023/09/26 09:30:07;;;;;;;3.43;1.90;;;;;;;;;;5012364;28;20435;-71
2023/09/26 09:32:33;;;;;;;3.03;2.80;;;;;;;;;;4994566;28;20447;-69
2023/09/26 09:34:59;;;;;;;2.13;2.03;;;;;;;;;;4993520;28;20436;-69
2023/09/26 09:37:25;;;;;;;1.27;1.27;;;;;;;;;;5010097;28;20443;-68
2023/09/26 09:39:51;;;;;;;1.13;1.13;;;;;;;;;;5011545;28;20439;-70
2023/09/26 09:42:17;;;;;;;2.40;2.20;;;;;;;;;;5012422;28;20423;-70
2023/09/26 09:44:43;;;;;;;15.63;3.23;;;;;;;;;;5012731;28;20840;-69
2023/09/26 09:47:11;;;;;;;2.23;2.03;;;;;;;;;;5012451;28;20507;-69
2023/09/26 09:49:42;;;;;;;1.70;1.60;;;;;;;;;;5012030;28;20559;-71
2023/09/26 09:52:09;;;;;;;6.50;2.20;;;;;;;;;;5010368;28;20440;-70
2023/09/26 09:54:39;;;;;;;2.87;2.00;;;;;;;;;;4994819;28;20459;-70
2023/09/26 09:57:10;;;;;;;6.90;1.90;;;;;;;;;;5012198;28;20432;-68
2023/09/26 09:59:37;;;;;;;2.30;2.20;;;;;;;;;;5012581;28;20442;-70
2023/09/26 10:02:03;;;;;;;2.00;2.00;;;;;;;;;;5007071;28;20494;-70
2023/09/26 10:04:31;;;;;;;3.00;2.40;;;;;;;;;;5008619;28;20507;-71
2023/09/26 10:06:58;;;;;;;3.07;2.10;;;;;;;;;;5010051;28;20436;-69
2023/09/26 10:09:25;;;;;;;2.80;2.60;;;;;;;;;;5008571;28;20448;-69
2023/09/26 10:11:52;;;;;;;2.30;2.07;;;;;;;;;;5010459;28;20428;-70
2023/09/26 10:14:25;;;;;;;5.40;2.00;;;;;;;;;;4993099;28;20499;-69
2023/09/26 10:16:54;;;;;;;4.17;2.60;;;;;;;;;;5010783;28;20566;-68
2023/09/26 10:19:22;;;;;;;2.00;1.90;;;;;;;;;;4992726;28;20943;-70
2023/09/26 10:21:48;;;;;;;6.33;2.97;;;;;;;;;;5006670;28;20432;-72
2023/09/26 10:24:17;;;;;;;6.37;2.60;;;;;;;;;;5010168;28;20487;-73
2023/09/26 10:26:50;;;;;;;2.37;2.27;;;;;;;;;;5010110;28;21057;-69
2023/09/26 10:29:25;;;;;;;3.17;2.80;;;;;;;;;;5010831;28;20436;-71
2023/09/26 10:31:53;;;;;;;2.93;2.63;;;;;;;;;;5010177;28;20463;-73
2023/09/26 10:34:20;;;;;;;2.27;2.17;;;;;;;;;;4992982;28;20506;-70
2023/09/26 10:36:47;;;;;;;2.30;1.70;;;;;;;;;;5011005;28;20514;-66
2023/09/26 10:39:13;;;;;;;1.50;1.50;;;;;;;;;;5011527;28;20440;-69
2023/09/26 10:41:40;;;;;;;1.87;1.77;;;;;;;;;;4993318;28;20440;-69
2023/09/26 10:44:06;;;;;;;7.30;1.80;;;;;;;;;;5010342;28;20487;-70
2023/09/26 10:46:32;;;;;;;2.70;2.30;;;;;;;;;;5008473;28;20436;-69
2023/09/26 10:48:58;;;;;;;2.10;2.00;;;;;;;;;;5010157;28;20944;-69
2023/09/26 10:51:24;;;;;;;2.53;2.17;;;;;;;;;;5010040;28;20428;-71
2023/09/26 10:53:51;;;;;;;1.70;1.60;;;;;;;;;;5010806;28;20494;-70
2023/09/26 10:56:17;;;;;;;1.57;1.47;;;;;;;;;;5008961;28;20436;-72
2023/09/26 10:58:45;;;;;;;1.30;1.30;;;;;;;;;;4993450;28;20790;-73
2023/09/26 11:01:11;;;;;;;3.07;1.80;;;;;;;;;;5011404;28;20436;-69
2023/09/26 11:03:37;;;;;;;1.70;1.60;;;;;;;;;;5010899;28;20479;-71
2023/09/26 11:06:04;;;;;;;2.87;1.80;;;;;;;;;;5011107;28;20432;-72
2023/09/26 11:08:30;;;;;;;2.00;1.73;;;;;;;;;;5010833;28;20428;-71
2023/09/26 11:10:57;;;;;;;5.07;1.40;;;;;;;;;;4993473;28;20435;-69
2023/09/26 11:13:23;;;;;;;1.30;1.30;;;;;;;;;;5008745;28;20432;-70
2023/09/26 11:15:55;;;;;;;1.10;1.10;;;;;;;;;;5010047;28;20424;-73
2023/09/26 11:18:22;;;;;;;8.03;1.30;;;;;;;;;;5009951;28;20444;-70
2023/09/26 11:20:48;;;;;;;1.60;1.00;;;;;;;;;;5005727;28;20443;-69
2023/09/26 11:23:33;;;;;;;2.40;1.57;;;;;;;;;;5008936;28;20478;-71
2023/09/26 11:26:03;;;;;;;0.93;0.93;;;;;;;;;;5009980;28;20416;-69
2023/09/26 11:28:29;;;;;;;1.37;1.27;;;;;;;;;;5005676;28;20439;-69
2023/09/26 11:30:55;;;;;;;2.20;1.00;;;;;;;;;;5008561;28;20428;-70
2023/09/26 11:33:21;;;;;;;1.30;1.30;;;;;;;;;;5008790;28;20450;-69
2023/09/26 11:35:47;;;;;;;0.90;0.90;;;;;;;;;;5008890;28;20428;-69
2023/09/26 11:38:14;;;;;;;1.77;1.77;;;;;;;;;;5009722;28;20482;-70
2023/09/26 11:40:40;;;;;;;1.27;1.27;;;;;;;;;;4992510;28;20940;-69
2023/09/26 11:43:06;;;;;;;2.00;1.30;;;;;;;;;;5010070;28;20495;-69
2023/09/26 11:45:32;;;;;;;1.60;1.60;;;;;;;;;;5009936;28;20424;-74
2023/09/26 11:48:01;;;;;;;2.23;1.40;;;;;;;;;;5008400;28;20436;-73
2023/09/26 11:50:28;;;;;;;1.53;1.43;;;;;;;;;;5010390;28;20433;-72
2023/09/26 11:52:57;;;;;;;1.50;1.40;;;;;;;;;;5010249;28;20423;-69
2023/09/26 11:55:23;;;;;;;1.10;1.10;;;;;;;;;;5009697;28;20428;-72
2023/09/26 11:57:50;;;;;;;1.63;1.53;;;;;;;;;;5009843;28;20478;-70
2023/09/26 12:00:16;;;;;;;1.10;1.10;;;;;;;;;;5009804;28;20428;-71
2023/09/26 12:02:46;;;;;;;1.10;1.10;;;;;;;;;;5008033;28;20465;-72
2023/09/26 12:05:13;;;;;;;1.10;1.00;;;;;;;;;;5009853;28;20463;-69
2023/09/26 12:07:40;;;;;;;1.20;1.20;;;;;;;;;;5008332;28;20978;-72
2023/09/26 12:10:09;;;;;;;1.10;1.10;;;;;;;;;;5010036;28;20416;-72
2023/09/26 12:12:35;;;;;;;0.90;0.90;;;;;;;;;;4992074;28;20962;-71
2023/09/26 12:15:20;;;;;;;1.43;1.33;;;;;;;;;;5009455;28;20797;-72
2023/09/26 12:17:46;;;;;;;3.57;1.67;;;;;;;;;;5009370;28;20432;-70
2023/09/26 12:20:13;;;;;;;1.30;1.13;;;;;;;;;;5010449;28;20424;-70
2023/09/26 12:22:39;;;;;;;1.50;1.20;;;;;;;;;;5010159;28;20425;-69
2023/09/26 12:25:05;;;;;;;1.10;1.10;;;;;;;;;;5009613;28;20447;-69
2023/09/26 12:27:31;;;;;;;1.00;1.00;;;;;;;;;;5009719;28;20447;-69
2023/09/26 12:29:57;;;;;;;1.33;1.23;;;;;;;;;;5010206;28;20932;-70
2023/09/26 12:32:23;;;;;;;2.20;1.50;;;;;;;;;;5009919;28;20511;-70
2023/09/26 12:34:49;;;;;;;2.03;1.93;;;;;;;;;;4991886;28;20450;-68
2023/09/26 12:37:15;;;;;;;1.10;1.10;;;;;;;;;;5005752;28;20432;-69
2023/09/26 12:39:41;;;;;;;1.17;1.17;;;;;;;;;;5008909;28;20432;-69
2023/09/26 12:42:07;;;;;;;3.60;1.93;;;;;;;;;;4991816;28;20424;-70
2023/09/26 12:44:36;;;;;;;2.40;1.53;;;;;;;;;;5010605;28;20523;-69
2023/09/26 12:47:02;;;;;;;1.87;1.77;;;;;;;;;;4995705;28;20928;-69
2023/09/26 12:49:28;;;;;;;1.20;1.10;;;;;;;;;;4994393;28;21019;-69
2023/09/26 12:51:54;;;;;;;4.57;1.90;;;;;;;;;;5009984;28;20455;-67
2023/09/26 12:54:21;;;;;;;2.47;1.40;;;;;;;;;;4995591;28;20444;-69
2023/09/26 12:56:48;;;;;;;3.33;1.70;;;;;;;;;;4995654;28;20463;-70
2023/09/26 12:59:14;;;;;;;1.30;1.30;;;;;;;;;;5010725;28;20478;-72
2023/09/26 13:01:40;;;;;;;0.90;0.90;;;;;;;;;;5013330;28;20448;-74
2023/09/26 13:04:06;;;;;;;1.20;1.20;;;;;;;;;;5013034;28;20479;-73
2023/09/26 13:06:32;;;;;;;1.50;1.40;;;;;;;;;;5012745;28;20432;-73
2023/09/26 13:08:59;;;;;;;8.47;1.20;;;;;;;;;;5012313;28;20791;-70
2023/09/26 13:11:25;;;;;;;1.30;1.30;;;;;;;;;;5012321;28;20539;-70
2023/09/26 13:13:51;;;;;;;1.83;1.40;;;;;;;;;;5011955;28;21427;-71
2023/09/26 13:16:17;;;;;;;2.70;1.80;;;;;;;;;;5011971;28;20428;-71
2023/09/26 13:18:43;;;;;;;1.53;1.43;;;;;;;;;;5010944;28;20450;-73
2023/09/26 13:21:09;;;;;;;1.10;1.10;;;;;;;;;;5006454;28;20793;-72
2023/09/26 13:23:35;;;;;;;1.80;1.40;;;;;;;;;;5010135;28;20490;-70
2023/09/26 13:26:01;;;;;;;2.20;1.67;;;;;;;;;;5011994;28;20916;-73
2023/09/26 13:28:27;;;;;;;1.37;1.37;;;;;;;;;;5010705;28;20946;-72
2023/09/26 13:30:53;;;;;;;10.53;1.57;;;;;;;;;;5012553;28;20436;-74
2023/09/26 13:33:20;;;;;;;1.30;1.30;;;;;;;;;;5007804;28;20792;-73
2023/09/26 13:35:46;;;;;;;1.73;1.73;;;;;;;;;;5009831;28;20436;-70
2023/09/26 13:38:12;;;;;;;1.53;1.43;;;;;;;;;;4991642;28;20431;-73
2023/09/26 13:40:40;;;;;;;1.70;1.50;;;;;;;;;;5011364;28;20436;-73
2023/09/26 13:43:06;;;;;;;2.40;1.50;;;;;;;;;;5011357;28;20536;-73
2023/09/26 13:45:33;;;;;;;1.60;1.60;;;;;;;;;;5011403;28;20428;-70
2023/09/26 13:47:59;;;;;;;4.20;1.90;;;;;;;;;;5007164;28;20505;-73
2023/09/26 13:50:25;;;;;;;1.00;1.00;;;;;;;;;;5011433;28;20435;-72
2023/09/26 13:52:51;;;;;;;5.50;1.63;;;;;;;;;;5009670;28;20444;-71
2023/09/26 13:55:17;;;;;;;7.50;1.43;;;;;;;;;;5008862;28;20443;-71
2023/09/26 13:57:43;;;;;;;3.00;1.40;;;;;;;;;;5007938;28;20456;-73
2023/09/26 14:00:09;;;;;;;1.80;1.70;;;;;;;;;;4992943;28;20439;-70
2023/09/26 14:02:35;;;;;;;1.80;1.80;;;;;;;;;;5010514;28;20487;-69
2023/09/26 14:05:03;;;;;;;1.27;1.27;;;;;;;;;;5011514;28;20517;-71
2023/09/26 14:07:31;;;;;;;2.20;1.70;;;;;;;;;;5009853;28;20436;-72
2023/09/26 14:09:57;;;;;;;6.03;1.60;;;;;;;;;;5006854;28;20438;-70
2023/09/26 14:12:23;;;;;;;0.80;0.80;;;;;;;;;;5010103;28;20435;-72
2023/09/26 14:14:50;;;;;;;2.00;1.87;;;;;;;;;;5011013;28;20484;-69
2023/09/26 14:17:16;;;;;;;1.97;1.87;;;;;;;;;;4992233;28;20436;-69
2023/09/26 14:19:42;;;;;;;1.10;1.10;;;;;;;;;;5011101;28;20555;-70
2023/09/26 14:22:08;;;;;;;2.40;1.10;;;;;;;;;;5011517;28;20428;-71
2023/09/26 14:24:34;;;;;;;5.33;0.90;;;;;;;;;;5011619;28;21007;-72
2023/09/26 14:27:00;;;;;;;8.00;1.63;;;;;;;;;;5010161;28;20435;-71
2023/09/26 14:29:32;;;;;;;1.60;1.50;;;;;;;;;;5010750;28;20907;-71
2023/09/26 14:31:58;;;;;;;3.90;1.53;;;;;;;;;;5010796;28;20966;-71
2023/09/26 14:34:24;;;;;;;4.47;1.47;;;;;;;;;;5010718;28;20851;-72
2023/09/26 14:36:50;;;;;;;1.67;1.67;;;;;;;;;;4993571;28;20456;-69
2023/09/26 14:39:16;;;;;;;0.77;0.77;;;;;;;;;;5010839;28;20428;-71
2023/09/26 14:41:43;;;;;;;3.03;1.40;;;;;;;;;;5011502;28;20432;-70
2023/09/26 14:44:09;;;;;;;3.07;1.87;;;;;;;;;;5010494;28;20476;-69
2023/09/26 14:46:35;;;;;;;1.20;1.20;;;;;;;;;;5010910;28;20948;-69
2023/09/26 14:49:03;;;;;;;1.10;1.10;;;;;;;;;;5011055;28;20432;-69